Portada
METAR-TAF:

METAR-TAF

Aeroports :

Hambantota, Sri Lanka

latitud: 06-17-20N, longitud: 81-07-25E, altitud: 48 m

Observació

L'informe es va fer fa 28 minuts, a les 11:10 UTC
Vent 9 kt del Oest
Temperatura 31°C
Humitat 71%
Pressió 1004 hPa
Visibilitat 10 km o més
Cel ennuvolat a una alçada de 1800 ft
Escasses núvols a una alçada de 2000 ft, Cumulonimbus.

METAR: VCRI 251110Z 26009KT 9999 BKN018 FEW020CB 31/25 Q1004 NOSIG RMK SW

Hora: 17:08 (11:38 UTC)

Pronòstic

L'informe es va fer fa 6 hores i 38 minuts, a les 05:00 UTC
Pronòstic vàlid del 25 a les 06 UTC al 26 a les 12 UTC
Vent 12 kt del Oest amb ràfegues de 22 kt
Visibilitat 10 km o més
Escasses núvols a una alçada de 1800 ft
Evolucionant progressivament
l' 25 a les 13 UTC al 25 a les 15 UTC
Vent 8 kt del Sud-Oest

TAF: VCRI 250500Z 2506/2612 26012G22KT 9999 FEW018 TX34/2507Z TN25/2600Z BECMG 2513/2515 23008KT

Observacions i pronòstics meteorològics de més de 4000 aeroports (METAR i TAF).

Les estacions disponibles són els punts grocs i vermells al mapa.

Posi el ratolí al punt desitjat per veure el nom de l'estació.

Feu clic per veure les observacions i els pronòstics meteorològics.

Per canviar el mapa: feu clic els botons verds amb una creu de color negre per apropar; al botó verd amb un guió per allunyar la imatge; o en les fletxes verdes per a mapes adjacents.


METAR-TAF: